createdAt,value
2022-11-21T00:03:28.660Z,12.90
2022-11-21T00:08:32.097Z,12.80
2022-11-21T00:13:35.591Z,12.80
2022-11-21T00:18:40.662Z,12.80
2022-11-21T00:23:44.168Z,12.70
2022-11-21T00:28:47.706Z,12.70
2022-11-21T00:33:52.630Z,12.70
2022-11-21T00:38:56.071Z,12.70
2022-11-21T00:43:59.485Z,12.70
2022-11-21T00:49:04.199Z,12.70
2022-11-21T00:54:07.601Z,12.70
2022-11-21T00:59:10.859Z,12.70
2022-11-21T01:04:15.570Z,12.60
2022-11-21T01:09:18.828Z,12.60
2022-11-21T01:14:22.204Z,12.60
2022-11-21T01:19:26.910Z,12.60
2022-11-21T01:24:35.528Z,12.60
2022-11-21T01:29:42.071Z,12.60
2022-11-21T01:34:47.288Z,12.60
2022-11-21T01:39:50.585Z,12.50
2022-11-21T01:44:55.030Z,12.50
2022-11-21T01:49:59.891Z,12.50
2022-11-21T01:55:06.933Z,12.50
2022-11-21T02:00:14.163Z,12.40
2022-11-21T02:05:22.458Z,12.40
2022-11-21T02:10:26.228Z,12.40
2022-11-21T02:15:30.829Z,12.40
2022-11-21T02:20:36.025Z,12.40
2022-11-21T02:25:42.450Z,12.30
2022-11-21T02:30:45.706Z,12.30
2022-11-21T02:35:58.161Z,12.30
2022-11-21T02:41:09.857Z,12.20
2022-11-21T02:46:13.182Z,12.20
2022-11-21T02:51:16.498Z,12.30
2022-11-21T02:56:21.127Z,12.20
2022-11-21T03:01:25.102Z,12.20
2022-11-21T03:06:28.450Z,12.20
2022-11-21T03:11:33.440Z,12.20
2022-11-21T03:16:36.750Z,12.10
2022-11-21T03:21:40.035Z,12.10
2022-11-21T03:26:44.763Z,12.10
2022-11-21T03:31:48.126Z,12.10
2022-11-21T03:36:51.433Z,12.10
2022-11-21T03:41:56.238Z,12.10
2022-11-21T03:46:59.527Z,12.10
2022-11-21T03:52:02.856Z,12.10
2022-11-21T03:57:07.478Z,12.10
2022-11-21T04:02:10.830Z,12.10
2022-11-21T04:07:14.319Z,12.10
2022-11-21T04:12:18.998Z,12.10
2022-11-21T04:17:22.407Z,12.20
2022-11-21T04:22:25.729Z,12.20
2022-11-21T04:27:30.385Z,12.30
2022-11-21T04:32:33.696Z,12.30
2022-11-21T04:37:37.199Z,12.30
2022-11-21T04:42:44.410Z,12.30
2022-11-21T04:47:50.504Z,12.40
2022-11-21T04:52:55.370Z,12.40
2022-11-21T04:58:00.281Z,12.40
2022-11-21T05:03:05.046Z,12.40
2022-11-21T05:08:08.282Z,12.40
2022-11-21T05:13:24.960Z,12.50
2022-11-21T05:18:28.157Z,12.60
2022-11-21T05:23:31.426Z,12.70
2022-11-21T05:28:36.151Z,12.70
2022-11-21T05:33:39.387Z,12.80
2022-11-21T05:38:42.681Z,12.90
2022-11-21T05:43:47.290Z,13.00
2022-11-21T05:48:51.462Z,13.10
2022-11-21T05:53:54.669Z,13.10
2022-11-21T05:59:00.093Z,13.20
2022-11-21T06:04:03.404Z,13.20
2022-11-21T06:09:06.793Z,13.30
2022-11-21T06:14:11.430Z,13.40
2022-11-21T06:19:14.679Z,13.40
2022-11-21T06:24:24.641Z,13.50
2022-11-21T06:29:29.329Z,13.50
2022-11-21T06:34:32.598Z,13.60
2022-11-21T06:39:35.941Z,13.60
2022-11-21T06:44:40.562Z,13.70
2022-11-21T06:49:43.979Z,13.70
2022-11-21T06:54:47.220Z,13.80
2022-11-21T06:59:51.934Z,13.80
2022-11-21T07:04:55.144Z,13.80
2022-11-21T07:09:58.603Z,13.90
2022-11-21T07:15:03.259Z,13.90
2022-11-21T07:20:07.748Z,14.00
2022-11-21T07:25:11.307Z,14.00
2022-11-21T07:30:16.734Z,14.10
2022-11-21T07:35:19.966Z,14.10
2022-11-21T07:40:23.359Z,14.10
2022-11-21T07:45:28.023Z,14.20
2022-11-21T07:50:31.778Z,14.20
2022-11-21T07:55:40.401Z,14.30
2022-11-21T08:00:45.760Z,14.30
2022-11-21T08:05:49.703Z,14.30
2022-11-21T08:10:53.050Z,14.40
2022-11-21T08:15:57.643Z,14.40
2022-11-21T08:21:02.641Z,14.50
2022-11-21T08:26:06.182Z,14.50
2022-11-21T08:31:11.025Z,14.60
2022-11-21T08:36:14.370Z,14.70
2022-11-21T08:41:35.073Z,14.70
2022-11-21T08:46:39.874Z,14.80
2022-11-21T08:51:43.147Z,14.80
2022-11-21T08:56:46.566Z,14.90
2022-11-21T09:01:53.028Z,15.00
2022-11-21T09:06:56.445Z,15.10
2022-11-21T09:11:59.702Z,15.10
2022-11-21T09:17:22.102Z,15.20
2022-11-21T09:22:26.046Z,15.20
2022-11-21T09:27:29.376Z,15.30
2022-11-21T09:32:34.041Z,15.30
2022-11-21T09:37:38.289Z,15.40
2022-11-21T09:42:56.685Z,15.50
2022-11-21T09:48:04.888Z,15.50
2022-11-21T09:53:13.482Z,15.50
2022-11-21T09:58:25.507Z,15.60
2022-11-21T10:03:33.716Z,15.60
2022-11-21T10:08:49.543Z,15.70
2022-11-21T10:14:06.607Z,15.70
2022-11-21T10:19:35.800Z,15.80
2022-11-21T10:24:45.452Z,15.80
2022-11-21T10:29:55.770Z,15.90
2022-11-21T10:35:06.590Z,16.00
2022-11-21T10:40:21.806Z,16.10
2022-11-21T10:45:25.440Z,16.10
2022-11-21T10:50:41.321Z,16.20
2022-11-21T10:56:00.342Z,16.20
2022-11-21T11:01:03.770Z,16.20
2022-11-21T11:06:09.882Z,16.30
2022-11-21T11:11:26.843Z,16.30
2022-11-21T11:16:35.962Z,16.30
2022-11-21T11:21:46.208Z,16.30
2022-11-21T11:26:58.054Z,16.30
2022-11-21T11:32:04.399Z,16.30
2022-11-21T11:37:20.083Z,16.30
2022-11-21T11:43:12.003Z,16.20
2022-11-21T11:48:16.515Z,16.20
2022-11-21T11:53:24.296Z,16.10
2022-11-21T11:58:33.556Z,16.00
2022-11-21T12:03:43.034Z,16.00
2022-11-21T12:08:54.820Z,15.90
2022-11-21T12:13:58.663Z,15.90
2022-11-21T12:19:06.616Z,15.70
2022-11-21T12:24:13.008Z,15.70
2022-11-21T12:29:30.586Z,15.70
2022-11-21T12:34:49.083Z,15.70
2022-11-21T12:40:11.833Z,15.80
2022-11-21T12:45:47.919Z,15.70
2022-11-21T12:51:20.576Z,15.80
2022-11-21T12:56:33.908Z,15.80
2022-11-21T13:01:43.388Z,15.80
2022-11-21T13:06:49.145Z,15.70
2022-11-21T13:12:01.681Z,15.70
2022-11-21T13:17:15.240Z,15.70
2022-11-21T13:22:58.133Z,15.60
2022-11-21T13:28:40.203Z,15.60
2022-11-21T13:33:53.748Z,15.60
2022-11-21T13:39:33.849Z,15.60
2022-11-21T13:44:41.781Z,15.50
2022-11-21T13:49:57.242Z,15.50
2022-11-21T13:55:20.221Z,15.50
2022-11-21T14:00:44.947Z,15.50
2022-11-21T14:06:26.007Z,15.60
2022-11-21T14:11:41.353Z,15.60
2022-11-21T14:16:52.367Z,15.60
2022-11-21T14:21:57.075Z,15.70
2022-11-21T14:27:00.791Z,15.70
2022-11-21T14:32:04.344Z,15.80
2022-11-21T14:37:09.576Z,15.80
2022-11-21T14:42:15.752Z,15.80
2022-11-21T14:47:26.323Z,15.90
2022-11-21T14:52:33.986Z,15.90
2022-11-21T14:57:40.120Z,15.90
2022-11-21T15:02:44.267Z,15.90
2022-11-21T15:07:49.057Z,15.90
2022-11-21T15:13:00.500Z,15.90
2022-11-21T15:23:32.976Z,16.10
2022-11-21T15:28:36.310Z,16.10
2022-11-21T15:34:19.191Z,16.10
2022-11-21T15:39:23.305Z,16.10
2022-11-21T15:44:26.647Z,16.10
2022-11-21T15:49:33.701Z,16.10
2022-11-21T15:54:38.598Z,16.10
2022-11-21T15:59:41.898Z,16.10
2022-11-21T16:04:45.645Z,16.10
2022-11-21T16:09:50.284Z,16.10
2022-11-21T16:14:53.751Z,16.00
2022-11-21T16:19:57.049Z,15.90
2022-11-21T16:25:02.478Z,15.90
2022-11-21T16:30:06.794Z,15.80
2022-11-21T16:35:11.187Z,15.70
2022-11-21T16:40:16.412Z,15.70
2022-11-21T16:45:20.415Z,15.60
2022-11-21T16:50:23.821Z,15.50
2022-11-21T16:55:30.602Z,15.50
2022-11-21T17:00:35.077Z,15.40
2022-11-21T17:05:39.498Z,15.40
2022-11-21T17:10:45.057Z,15.30
2022-11-21T17:15:48.794Z,15.20
2022-11-21T17:20:53.024Z,15.20
2022-11-21T17:26:04.193Z,15.10
2022-11-21T17:31:09.831Z,15.10
2022-11-21T17:36:15.856Z,15.00
2022-11-21T17:41:22.418Z,15.00
2022-11-21T17:46:29.611Z,14.90
2022-11-21T17:51:35.661Z,14.90
2022-11-21T17:56:45.877Z,14.90
2022-11-21T18:01:51.497Z,14.80
2022-11-21T18:06:56.751Z,14.80
2022-11-21T18:12:02.692Z,14.70
2022-11-21T18:17:07.314Z,14.70
2022-11-21T18:22:11.935Z,14.60
2022-11-21T18:27:20.148Z,14.60
2022-11-21T18:32:26.162Z,14.60
2022-11-21T18:37:30.513Z,14.50
2022-11-21T18:42:37.751Z,14.50
2022-11-21T18:47:44.446Z,14.50
2022-11-21T18:52:49.652Z,14.40
2022-11-21T18:57:56.403Z,14.40
2022-11-21T19:03:01.392Z,14.30
2022-11-21T19:08:07.197Z,14.30
2022-11-21T19:13:15.974Z,14.30
2022-11-21T19:18:22.705Z,14.30
2022-11-21T19:23:27.507Z,14.20
2022-11-21T19:28:34.273Z,14.20
2022-11-21T19:33:40.703Z,14.10
2022-11-21T19:38:50.863Z,14.10
2022-11-21T19:44:01.964Z,14.10
2022-11-21T19:49:08.445Z,14.00
2022-11-21T19:54:16.722Z,14.00
2022-11-21T19:59:23.101Z,14.00
2022-11-21T20:04:28.763Z,14.00
2022-11-21T20:09:34.830Z,14.00
2022-11-21T20:14:42.684Z,13.90
2022-11-21T20:19:50.637Z,13.90
2022-11-21T20:24:56.105Z,13.80
2022-11-21T20:30:02.420Z,13.80
2022-11-21T20:35:07.470Z,13.80
2022-11-21T20:40:13.737Z,13.70
2022-11-21T20:56:11.747Z,13.70
2022-11-21T21:01:22.429Z,13.60
2022-11-21T21:06:28.094Z,13.60
2022-11-21T21:11:50.990Z,13.50
2022-11-21T21:16:57.894Z,13.50
2022-11-21T21:22:01.511Z,13.50
2022-11-21T21:27:05.798Z,13.40
2022-11-21T21:32:10.796Z,13.40
2022-11-21T21:37:14.216Z,13.40
2022-11-21T21:42:17.761Z,13.30
2022-11-21T21:47:22.436Z,13.30
2022-11-21T21:52:25.850Z,13.30
2022-11-21T21:57:29.210Z,13.30
2022-11-21T22:02:34.033Z,13.30
2022-11-21T22:07:37.610Z,13.20
2022-11-21T22:12:43.968Z,13.20
2022-11-21T22:17:49.043Z,13.10
2022-11-21T22:22:56.394Z,13.10
2022-11-21T22:28:03.423Z,13.00
2022-11-21T22:33:08.307Z,12.90
2022-11-21T22:38:12.224Z,12.90
2022-11-21T22:43:15.916Z,12.80
2022-11-21T22:48:20.593Z,12.80
2022-11-21T22:53:24.118Z,12.70
2022-11-21T22:58:30.200Z,12.60
2022-11-21T23:03:35.557Z,12.50
2022-11-21T23:08:39.659Z,12.50
2022-11-21T23:13:44.687Z,12.40
2022-11-21T23:18:52.512Z,12.40
2022-11-21T23:23:56.133Z,12.30
2022-11-21T23:29:05.051Z,12.20
2022-11-21T23:34:13.053Z,12.20
2022-11-21T23:39:16.501Z,12.20
2022-11-21T23:44:19.784Z,12.10
2022-11-21T23:49:24.483Z,12.10
2022-11-21T23:54:27.727Z,12.10
2022-11-21T23:59:31.229Z,12.00
